Sunday, March 01, 2015
19:21 UTC
  |  Log In   |  Register Free
Airport Search:

Tucson International Airport
(KTUS)

Tucson International Airport Diagram
No Airport Diagram Available

FAA data valid effective January 08, 2015 - March 05, 2015 (unless otherwise noted).

 
 
 
 
 
 
 
 
 
 
 
 
 
 

Current Aviation Weather for Tucson International Airport (KTUS)

The most recent METAR observation for KTUS was updated at: 1816
METAR Summary (Translated METAR)
KTUS
011753Z 11006KT 10SM CLR 19/04 A3005 RMK AO2 SLP146 T01890039 10189 20117 50004
KDMA
011858Z AUTO VRB05KT 10SM CLR 21/04 A3000 RMK AO2 SLP135 T02050041 $
(4.2 nm NE from KTUS)
KRYN
011845Z 19010G18KT 10SM 22/06 A3001
(12 nm NW from KTUS)
TAF Summary (Translated TAF)
KTUS
011720Z 0118/0218 17010KT P6SM SCT060 SCT130 FM012000 21014G22KT P6SM SCT060 BKN130 FM020200 20008KT P6SM SCT070 BKN130 FM021600 18008KT P6SM VCSH BKN050
KDMA
(4.2 nm NE from KTUS)
0113/0219 14006KT 9999 FEW100 OVC240 QNH2996INS BECMG 0120/0121 20012G18KT 9999 BKN050 QNH2993INS TEMPO 0123/0202 21015G26KT 510009 BECMG 0202/0203 14009KT 9999 SCT050 SCT150 QNH2998INS BECMG 0217/0218 20012G18KT 9000 -SHRA OVC040 QNH2996INS TX22/0122Z TN10/0213Z
  Airport Weather Conditions for KTUS

 Current Weather at TUS
70° F
Fair
Southwest winds at 11.5 mph
TUS NOAA Radar

Pressure: 30.02 in
Humidity: 31%
Wind: from the Southwest at 11.5 gusting to 20.7 MPH (10 gusting to 18 KT)
Dew Point: 37.9°F
Visibility: 10.00 mi


Airport Weather Forecast for KTUS

Translated METAR and TAF for KTUS
Translated METAR for KTUS (1920 UTC 01 March 2015)
found at http://aviationweather.gov/adds/metars/
 
METAR text: KTUS 011853Z 22010G18KT 10SM CLR 21/03 A3002 RMK AO2 SLP135 T02110033
Conditions at: KTUS (TUCSON , AZ, US) observed 1853 UTC 01 March 2015
Temperature: 21.1°C (70°F)
Dewpoint: 3.3°C (38°F) [RH = 31%]
Pressure (altimeter): 30.02 inches Hg (1016.7 mb)
[Sea-level pressure: 1013.5 mb]
Winds: from the SW (220 degrees) at 12 MPH (10 knots; 5.2 m/s)
gusting to 21 MPH (18 knots; 9.4 m/s)
Visibility: 10 or more miles (16+ km)
Ceiling: at least 12,000 feet AGL
Clouds: sky clear below 12,000 feet AGL
Weather: no significant weather observed at this time
Translated TAF for KTUS
Forecast for: KTUS (TUCSON , AZ, US)
TAF Text: KTUS 011720Z 0118/0218 17010KT P6SM SCT060 SCT130
Forecast period: 1800 to 2000 UTC 01 March 2015
Forecast type: FROM: standard forecast or significant change
Winds: from the S (170 degrees) at 12 MPH (10 knots; 5.2 m/s)
Visibility: 6 or more miles (10+ km)
Clouds: scattered clouds at 6000 feet AGL
scattered clouds at 13000 feet AGL
Weather: no significant weather forecast for this period
TAF Text: FM012000 21014G22KT P6SM SCT060 BKN130
Forecast period: 2000 UTC 01 March 2015 to 0200 UTC 02 March 2015
Forecast type: FROM: standard forecast or significant change
Winds: from the SSW (210 degrees) at 16 MPH (14 knots; 7.3 m/s)
gusting to 25 MPH (22 knots; 11.4 m/s)
Visibility: 6 or more miles (10+ km)
Ceiling: 13000 feet AGL
Clouds: scattered clouds at 6000 feet AGL
broken clouds at 13000 feet AGL
Weather: no significant weather forecast for this period
TAF Text: FM020200 20008KT P6SM SCT070 BKN130
Forecast period: 0200 to 1600 UTC 02 March 2015
Forecast type: FROM: standard forecast or significant change
Winds: from the SSW (200 degrees) at 9 MPH (8 knots; 4.2 m/s)
Visibility: 6 or more miles (10+ km)
Ceiling: 13000 feet AGL
Clouds: scattered clouds at 7000 feet AGL
broken clouds at 13000 feet AGL
Weather: no significant weather forecast for this period
TAF Text: FM021600 18008KT P6SM VCSH BKN050
Forecast period: 1600 to 1800 UTC 02 March 2015
Forecast type: FROM: standard forecast or significant change
Winds: from the S (180 degrees) at 9 MPH (8 knots; 4.2 m/s)
Visibility: 6 or more miles (10+ km)
Ceiling: 5000 feet AGL
Clouds: broken clouds at 5000 feet AGL
Weather: VCSH  (showers in vicinity)

Find All Airport Services Find A Hotel Find A Rental Car Find A Golf Course Find A Restaurant $100 Hamburger



FBO's on the Field
FBO Company Facility Photos Services Transportation Aviation Fuel Prices: Prices include tax
Catering Weather Repair Courtesy Rental Type 100LL JetA JetA+ MOGAS 8087
 
Bombardier Aerospace

Bombardier Aerospace logo
This FBO has not yet been rated
FS:
Last Updated: Feb-03
Login to update fuel prices
SS:
Contact Bombardier AerospaceMore FBO Information
 
Atlantic Aviation - TUS

Currently rated 4.6 by 2 people
FS:Independent
Last Updated: Feb-26
Login to update fuel prices
SS:
Contact Atlantic Aviation - TUSMore FBO Information
 
Million Air Tucson

Currently rated 2.7 by 4 people
FS:Independent
Last Updated: Feb-26
Login to update fuel prices
SS:
Contact Million Air TucsonMore FBO Information
 
Premier Aviation (Million Air)

This FBO has not yet been rated
FS:Independent
Last Updated: Feb-26
Login to update fuel prices
SS:
Contact Premier Aviation (Million Air)More FBO Information
 
Tucson Jet Center

Currently rated 4.4 by 3 people
FS:Independent
Last Updated: Feb-13
Login to update fuel prices
SS:
Contact Tucson Jet CenterMore FBO Information
 
Velocity Air Inc.

This FBO has not yet been rated
FS:Ascent
Last Updated: Feb-27
Login to update fuel prices
SS:
Contact Velocity Air Inc.More FBO Information
 
Add another FBO Facility Photos Catering Weather Repair Courtesy Rental Type 100LL JetA JetA+ MOGAS 8087
Services Transportation Aviation Fuel Prices: Prices include tax


model-print
model-print
model-print
model-print